Time;durP1;ratioP1;P1;durP2;ratioP2;P2;SDS_P1;SDS_P2;PMS_P1;PMS_P2;Temp;Humidity;BMP_temperature;BMP_pressure;BME280_temperature;BME280_humidity;BME280_pressure;Samples;Min_cycle;Max_cycle;Signal;HPM_P1;HPM_P2
2021/01/31 00:02:50;;;;;;;3.35;2.17;;;18.80;44.10;;;;;;6247272;28;20021;-51
2021/01/31 00:05:54;;;;;;;2.33;1.70;;;18.80;44.10;;;;;;6247080;28;20034;-53
2021/01/31 00:08:54;;;;;;;3.80;2.30;;;18.80;44.10;;;;;;6246993;28;20021;-52
2021/01/31 00:11:55;;;;;;;3.00;1.70;;;18.80;44.10;;;;;;6247923;28;20557;-51
2021/01/31 00:14:56;;;;;;;3.63;2.00;;;18.80;44.20;;;;;;6247303;28;20502;-54
2021/01/31 00:17:57;;;;;;;2.92;2.00;;;18.80;44.20;;;;;;6253750;28;20115;-51
2021/01/31 00:20:58;;;;;;;2.47;1.90;;;18.80;44.20;;;;;;6263464;28;20220;-52
2021/01/31 00:23:59;;;;;;;2.67;2.13;;;18.80;44.10;;;;;;6246903;28;20017;-51
2021/01/31 00:26:59;;;;;;;2.33;1.73;;;18.80;44.20;;;;;;6246642;28;20084;-52
2021/01/31 00:30:00;;;;;;;3.53;2.25;;;18.80;44.10;;;;;;6246343;28;20061;-51
2021/01/31 00:33:09;;;;;;;2.97;2.10;;;18.80;44.10;;;;;;6269510;28;20040;-50
2021/01/31 00:36:09;;;;;;;2.72;1.88;;;18.80;44.10;;;;;;6270782;28;20041;-53
2021/01/31 00:39:11;;;;;;;2.78;1.88;;;18.80;44.10;;;;;;6271362;28;20032;-51
2021/01/31 00:42:15;;;;;;;2.38;1.80;;;18.80;44.10;;;;;;6258182;28;20026;-55
2021/01/31 00:45:19;;;;;;;3.42;2.15;;;18.80;44.20;;;;;;6246650;28;20497;-50
2021/01/31 00:48:20;;;;;;;2.22;1.75;;;18.80;44.20;;;;;;6246176;28;20582;-49
2021/01/31 00:51:20;;;;;;;2.85;2.08;;;18.80;44.20;;;;;;6245271;28;20025;-54
2021/01/31 00:54:21;;;;;;;2.30;1.80;;;18.80;44.20;;;;;;6246252;28;20059;-53
2021/01/31 00:57:21;;;;;;;4.28;2.15;;;18.80;44.20;;;;;;6245762;28;20033;-54
2021/01/31 01:00:28;;;;;;;2.22;1.55;;;18.70;44.20;;;;;;6261047;28;20108;-49
2021/01/31 01:03:28;;;;;;;2.72;1.92;;;18.80;44.30;;;;;;6266724;28;20021;-54
2021/01/31 01:06:29;;;;;;;2.72;1.90;;;18.80;44.20;;;;;;6266871;28;20032;-51
2021/01/31 01:09:29;;;;;;;2.85;1.98;;;18.70;44.20;;;;;;6246013;28;20482;-50
2021/01/31 01:12:30;;;;;;;2.70;1.85;;;18.70;44.20;;;;;;6245581;28;20045;-49
2021/01/31 01:15:31;;;;;;;2.65;1.73;;;18.80;44.30;;;;;;6245887;28;20025;-51
2021/01/31 01:18:32;;;;;;;2.88;2.05;;;18.70;44.30;;;;;;6245469;28;20073;-54
2021/01/31 01:21:33;;;;;;;2.95;2.13;;;18.70;44.20;;;;;;6247297;28;20021;-49
2021/01/31 01:24:34;;;;;;;2.67;2.08;;;18.70;44.30;;;;;;6270152;28;20021;-51
2021/01/31 01:27:34;;;;;;;2.72;2.08;;;18.70;44.30;;;;;;6269957;28;20018;-52
2021/01/31 01:30:35;;;;;;;2.92;2.20;;;18.70;44.20;;;;;;6270705;28;20510;-52
2021/01/31 01:33:35;;;;;;;3.33;2.25;;;18.70;44.30;;;;;;6270343;28;20053;-51
2021/01/31 01:36:36;;;;;;;2.85;2.10;;;18.70;44.30;;;;;;6270383;28;20104;-49
2021/01/31 01:39:36;;;;;;;3.05;1.92;;;18.70;44.20;;;;;;6270575;28;20025;-50
2021/01/31 01:42:39;;;;;;;2.03;1.70;;;18.70;44.30;;;;;;6270332;28;20025;-53
2021/01/31 01:45:40;;;;;;;2.75;2.00;;;18.70;44.30;;;;;;6270375;28;20363;-50
2021/01/31 01:48:41;;;;;;;2.58;1.70;;;18.70;44.20;;;;;;6236565;28;20084;-50
2021/01/31 01:52:10;;;;;;;2.40;1.92;;;18.70;44.20;;;;;;6245802;28;20459;-49
2021/01/31 01:55:13;;;;;;;2.63;1.98;;;18.70;44.30;;;;;;6215202;28;20109;-56
2021/01/31 01:58:17;;;;;;;3.05;2.20;;;18.70;44.20;;;;;;6231625;28;20065;-49
2021/01/31 02:01:20;;;;;;;2.95;2.08;;;18.70;44.30;;;;;;6244907;28;20030;-50
2021/01/31 02:04:21;;;;;;;2.60;2.10;;;18.70;44.30;;;;;;6244845;28;20033;-50
2021/01/31 02:07:22;;;;;;;2.42;1.73;;;18.70;44.30;;;;;;6245215;28;20079;-50
2021/01/31 02:10:23;;;;;;;2.97;1.75;;;18.70;44.30;;;;;;6245231;28;20025;-49
2021/01/31 02:13:25;;;;;;;2.60;1.65;;;18.70;44.30;;;;;;6245137;28;20056;-56
2021/01/31 02:16:40;;;;;;;2.33;1.73;;;18.70;44.30;;;;;;6244902;28;20029;-51
2021/01/31 02:20:26;;;;;;;2.13;1.63;;;18.70;44.90;;;;;;6244982;28;20029;-50
2021/01/31 02:23:29;;;;;;;2.17;1.70;;;18.60;44.20;;;;;;6244514;28;20072;-51
2021/01/31 02:27:07;;;;;;;2.90;2.05;;;18.70;44.30;;;;;;6245119;28;20037;-54
2021/01/31 02:30:43;;;;;;;3.25;1.90;;;18.60;44.30;;;;;;6244769;28;20029;-54
2021/01/31 02:34:22;;;;;;;3.25;2.25;;;18.70;44.30;;;;;;6244709;28;20036;-51
2021/01/31 02:37:38;;;;;;;2.58;1.67;;;18.60;44.30;;;;;;6244637;28;20039;-49
2021/01/31 02:41:03;;;;;;;2.72;1.85;;;18.70;44.40;;;;;;6220594;28;20026;-51
2021/01/31 02:44:07;;;;;;;2.88;2.03;;;18.60;44.30;;;;;;6219633;28;20513;-51
2021/01/31 02:47:16;;;;;;;4.38;1.77;;;18.70;44.30;;;;;;6220254;28;20018;-56
2021/01/31 02:50:27;;;;;;;2.65;1.73;;;18.70;44.30;;;;;;6255251;28;20482;-53
2021/01/31 02:53:33;;;;;;;2.95;2.10;;;18.60;44.20;;;;;;6266811;28;20117;-52
2021/01/31 02:56:55;;;;;;;2.85;2.13;;;18.60;44.20;;;;;;6267292;28;20395;-53
2021/01/31 03:00:00;;;;;;;2.35;1.70;;;18.70;44.30;;;;;;6266845;28;20045;-54
2021/01/31 03:03:15;;;;;;;2.80;1.88;;;18.60;44.20;;;;;;6267459;28;20055;-52
2021/01/31 03:06:21;;;;;;;3.53;1.80;;;18.60;44.20;;;;;;6267318;28;20040;-53
2021/01/31 03:09:33;;;;;;;2.33;1.90;;;18.60;44.30;;;;;;6266687;28;20064;-54
2021/01/31 03:12:39;;;;;;;2.10;1.63;;;18.60;44.30;;;;;;6267108;28;20029;-54
2021/01/31 03:15:47;;;;;;;2.15;1.80;;;18.60;44.30;;;;;;6271252;28;20532;-54
2021/01/31 03:19:05;;;;;;;2.45;1.67;;;18.60;44.20;;;;;;6271878;28;20326;-55
2021/01/31 03:22:11;;;;;;;2.90;2.10;;;18.60;44.30;;;;;;6271373;28;20079;-53
2021/01/31 03:25:23;;;;;;;2.58;1.80;;;18.60;44.30;;;;;;6253863;28;20029;-53
2021/01/31 03:28:24;;;;;;;2.05;1.60;;;18.60;44.30;;;;;;6246747;28;20025;-50
2021/01/31 03:31:27;;;;;;;2.30;1.73;;;18.60;44.30;;;;;;6246474;28;20037;-53
2021/01/31 03:34:35;;;;;;;2.67;1.80;;;18.60;44.30;;;;;;6246048;28;20068;-52
2021/01/31 03:37:43;;;;;;;2.60;2.00;;;18.60;44.30;;;;;;6247002;28;20021;-51
2021/01/31 03:40:48;;;;;;;2.65;1.90;;;18.60;44.30;;;;;;6246560;28;20305;-51
2021/01/31 03:43:50;;;;;;;2.00;1.70;;;18.60;44.30;;;;;;6246976;28;20025;-50
2021/01/31 03:47:01;;;;;;;2.58;1.67;;;18.60;44.30;;;;;;6270809;28;20560;-53
2021/01/31 03:50:02;;;;;;;2.63;1.88;;;18.60;44.30;;;;;;6270811;28;20064;-50
2021/01/31 03:53:03;;;;;;;2.17;1.60;;;18.60;44.30;;;;;;6264560;28;20454;-49
2021/01/31 03:56:05;;;;;;;2.15;1.52;;;18.60;44.30;;;;;;6261923;28;20425;-49
2021/01/31 03:59:08;;;;;;;2.75;1.90;;;18.60;44.30;;;;;;6271095;28;20079;-54
2021/01/31 04:02:12;;;;;;;2.08;1.52;;;18.60;44.30;;;;;;6270900;28;20025;-52
2021/01/31 04:05:15;;;;;;;1.90;1.50;;;18.60;44.30;;;;;;6270455;28;20037;-52
2021/01/31 04:08:16;;;;;;;3.03;1.80;;;18.60;44.30;;;;;;6270806;28;20037;-54
2021/01/31 04:11:59;;;;;;;2.20;1.83;;;18.50;44.30;;;;;;6255001;28;20034;-53
2021/01/31 04:15:28;;;;;;;2.65;1.80;;;18.50;44.30;;;;;;6219958;28;20429;-53
2021/01/31 04:18:28;;;;;;;2.40;1.80;;;18.50;44.30;;;;;;6270156;28;20032;-58
2021/01/31 04:21:29;;;;;;;2.45;1.88;;;18.50;44.30;;;;;;6252440;28;20029;-53
2021/01/31 04:24:29;;;;;;;2.33;1.83;;;18.50;44.40;;;;;;6269514;28;20513;-53
2021/01/31 04:27:30;;;;;;;2.47;1.80;;;18.50;44.30;;;;;;6228797;28;20030;-56
2021/01/31 04:30:30;;;;;;;2.45;1.80;;;18.50;44.40;;;;;;6250900;28;20035;-52
2021/01/31 04:33:31;;;;;;;2.75;1.73;;;18.50;44.40;;;;;;6270035;28;20389;-52
2021/01/31 04:36:31;;;;;;;2.08;1.58;;;18.50;44.30;;;;;;6269679;28;20527;-56
2021/01/31 04:39:32;;;;;;;2.22;1.70;;;18.50;44.30;;;;;;6252576;28;20049;-55
2021/01/31 04:42:32;;;;;;;2.00;1.60;;;18.50;44.30;;;;;;6257753;28;20719;-52
2021/01/31 04:45:36;;;;;;;2.67;1.80;;;18.50;44.30;;;;;;6248853;28;20029;-52
2021/01/31 04:49:05;;;;;;;2.15;1.50;;;18.50;44.30;;;;;;6269635;28;20021;-51
2021/01/31 04:52:16;;;;;;;2.00;1.65;;;18.50;44.40;;;;;;6236175;28;20106;-55
2021/01/31 04:55:29;;;;;;;2.20;1.60;;;18.50;44.30;;;;;;6226971;28;20513;-52
2021/01/31 04:58:36;;;;;;;1.92;1.38;;;18.50;44.30;;;;;;6244634;28;20029;-53
2021/01/31 05:01:37;;;;;;;2.28;1.58;;;18.50;44.30;;;;;;6245123;28;20033;-52
2021/01/31 05:04:54;;;;;;;1.60;1.40;;;18.50;44.30;;;;;;6244651;28;20025;-56
2021/01/31 05:08:00;;;;;;;1.85;1.55;;;18.50;44.20;;;;;;6267626;28;20021;-59
2021/01/31 05:11:26;;;;;;;2.22;1.50;;;18.50;44.10;;;;;;6266443;28;20052;-55
2021/01/31 05:14:35;;;;;;;;;;;18.60;44.20;;;;;;6244835;28;20041;-53
2021/01/31 05:17:39;;;;;;;1.83;1.58;;;18.50;44.10;;;;;;6244227;28;20282;-53
2021/01/31 05:20:42;;;;;;;2.25;1.83;;;18.60;44.20;;;;;;6243978;28;20057;-55
2021/01/31 05:23:48;;;;;;;1.85;1.55;;;18.60;44.30;;;;;;6244551;28;20029;-53
2021/01/31 05:26:56;;;;;;;2.30;1.70;;;18.60;44.40;;;;;;6251011;28;20033;-52
2021/01/31 05:29:58;;;;;;;1.85;1.30;;;18.60;44.50;;;;;;6255016;28;20076;-55
2021/01/31 05:33:03;;;;;;;2.20;1.50;;;18.60;44.40;;;;;;6261171;28;20025;-56
2021/01/31 05:36:06;;;;;;;;;;;18.60;44.50;;;;;;6268722;28;20045;-49
2021/01/31 05:39:07;;;;;;;1.75;1.33;;;18.60;44.40;;;;;;6243750;28;19912;-56
2021/01/31 05:42:17;;;;;;;1.45;1.23;;;18.60;44.40;;;;;;6251155;28;20025;-53
2021/01/31 05:45:21;;;;;;;2.10;1.70;;;18.60;44.40;;;;;;6268357;28;20410;-55
2021/01/31 05:48:30;;;;;;;1.88;1.50;;;18.60;44.40;;;;;;6268156;28;20033;-55
2021/01/31 05:51:34;;;;;;;1.85;1.60;;;18.70;44.40;;;;;;6268148;28;20208;-55
2021/01/31 05:54:37;;;;;;;2.42;1.70;;;18.70;44.40;;;;;;6268516;28;20074;-56
2021/01/31 05:57:37;;;;;;;1.98;1.50;;;18.70;44.40;;;;;;6268030;28;20024;-53
2021/01/31 06:00:38;;;;;;;1.35;1.23;;;18.70;44.30;;;;;;6268175;28;20501;-55
2021/01/31 06:03:39;;;;;;;1.92;1.50;;;18.80;44.40;;;;;;6268134;28;20032;-54
2021/01/31 06:06:42;;;;;;;2.22;1.63;;;18.80;44.40;;;;;;6267958;28;20036;-49
2021/01/31 06:09:51;;;;;;;1.83;1.30;;;18.80;44.30;;;;;;6258095;28;20025;-50
2021/01/31 06:13:04;;;;;;;1.83;1.40;;;18.80;44.40;;;;;;6249522;28;20462;-50
2021/01/31 06:16:17;;;;;;;1.83;1.40;;;18.80;44.40;;;;;;6267601;28;20051;-56
2021/01/31 06:19:25;;;;;;;1.52;1.20;;;18.80;44.40;;;;;;6257936;28;20114;-56
2021/01/31 06:22:43;;;;;;;2.05;1.60;;;18.80;44.40;;;;;;6246867;28;20032;-52
2021/01/31 06:25:44;;;;;;;1.65;1.35;;;18.80;44.40;;;;;;6250524;28;20022;-54
2021/01/31 06:28:46;;;;;;;1.95;1.50;;;18.80;44.40;;;;;;6242597;28;20072;-50
2021/01/31 06:31:59;;;;;;;2.45;1.52;;;18.80;44.30;;;;;;6242623;28;20025;-51
2021/01/31 06:35:13;;;;;;;2.15;1.48;;;18.80;44.30;;;;;;6262431;28;20064;-53
2021/01/31 06:38:28;;;;;;;1.20;1.10;;;18.80;44.40;;;;;;6251194;28;20052;-49
2021/01/31 06:42:05;;;;;;;1.55;1.27;;;18.80;44.40;;;;;;6267289;28;20029;-51
2021/01/31 06:45:15;;;;;;;1.92;1.40;;;18.80;44.50;;;;;;6259951;28;20034;-52
2021/01/31 06:48:47;;;;;;;1.70;1.38;;;18.80;44.50;;;;;;6250371;28;20418;-54
2021/01/31 06:51:55;;;;;;;1.73;1.40;;;18.80;44.50;;;;;;6238939;28;20051;-51
2021/01/31 06:55:08;;;;;;;1.52;1.40;;;18.80;44.50;;;;;;6262032;28;20025;-52
2021/01/31 06:58:21;;;;;;;1.95;1.67;;;18.80;44.50;;;;;;6247007;28;20382;-53
2021/01/31 07:01:43;;;;;;;1.60;1.50;;;18.80;44.60;;;;;;6247946;28;20087;-50
2021/01/31 07:04:53;;;;;;;1.92;1.60;;;18.80;44.50;;;;;;6247235;28;20029;-54
2021/01/31 07:08:21;;;;;;;1.70;1.30;;;18.80;44.50;;;;;;6247691;28;20029;-53
2021/01/31 07:11:55;;;;;;;1.85;1.10;;;18.80;44.50;;;;;;6220959;28;20034;-52
2021/01/31 07:15:05;;;;;;;1.52;1.40;;;18.80;44.60;;;;;;6264204;28;20436;-52
2021/01/31 07:18:10;;;;;;;2.17;1.40;;;18.80;44.60;;;;;;6249895;28;20032;-53
2021/01/31 07:21:44;;;;;;;1.70;1.42;;;18.80;44.60;;;;;;6271723;28;20059;-51
2021/01/31 07:25:11;;;;;;;1.45;1.20;;;18.80;44.60;;;;;;6202108;28;20025;-51
2021/01/31 07:28:33;;;;;;;1.60;1.30;;;18.80;44.50;;;;;;6267874;28;20037;-53
2021/01/31 07:31:47;;;;;;;1.88;1.40;;;18.80;44.60;;;;;;6243125;28;20127;-49
2021/01/31 07:34:57;;;;;;;1.63;1.52;;;18.80;44.50;;;;;;6257759;28;20080;-54
2021/01/31 07:38:09;;;;;;;1.80;1.20;;;18.80;44.60;;;;;;6268604;28;20028;-52
2021/01/31 07:41:12;;;;;;;1.33;1.13;;;18.80;44.60;;;;;;6271122;28;20021;-51
2021/01/31 07:44:13;;;;;;;1.95;1.48;;;18.80;44.60;;;;;;6252934;28;20025;-53
2021/01/31 07:47:14;;;;;;;1.70;1.25;;;18.80;44.60;;;;;;6271084;28;20033;-51
2021/01/31 07:50:34;;;;;;;1.50;1.38;;;18.80;44.60;;;;;;6270584;28;20021;-52
2021/01/31 07:53:39;;;;;;;1.45;1.20;;;18.80;44.60;;;;;;6267930;28;20044;-50
2021/01/31 07:56:40;;;;;;;1.42;1.25;;;18.80;44.60;;;;;;6270780;28;20029;-52
2021/01/31 07:59:41;;;;;;;1.13;1.00;;;18.80;44.60;;;;;;6271199;28;20025;-54
2021/01/31 08:02:48;;;;;;;2.28;1.30;;;18.80;44.70;;;;;;6270780;28;20018;-56
2021/01/31 08:06:02;;;;;;;1.75;1.20;;;18.80;44.50;;;;;;6270662;28;20576;-50
2021/01/31 08:09:03;;;;;;;1.95;1.27;;;18.80;44.60;;;;;;6257084;28;20037;-53
2021/01/31 08:12:10;;;;;;;1.35;1.20;;;18.80;44.60;;;;;;6270474;28;20036;-53
2021/01/31 08:15:33;;;;;;;1.45;1.13;;;18.80;44.60;;;;;;6270499;28;20063;-51
2021/01/31 08:19:07;;;;;;;1.90;1.33;;;18.80;44.60;;;;;;6265873;28;20041;-50
2021/01/31 08:22:28;;;;;;;1.52;1.23;;;18.80;44.60;;;;;;6269115;28;20493;-50
2021/01/31 08:25:50;;;;;;;1.95;1.10;;;18.80;44.60;;;;;;6270166;28;20378;-51
2021/01/31 08:28:55;;;;;;;1.23;1.00;;;18.80;44.60;;;;;;6251595;28;20033;-51
2021/01/31 08:32:08;;;;;;;1.50;1.30;;;18.80;44.60;;;;;;6250578;28;20017;-53
2021/01/31 08:35:16;;;;;;;1.17;1.05;;;18.80;44.60;;;;;;6250389;28;20060;-57
2021/01/31 08:38:28;;;;;;;1.10;1.00;;;18.80;44.60;;;;;;6270256;28;20025;-50
2021/01/31 08:41:36;;;;;;;1.40;1.25;;;18.90;44.80;;;;;;6269565;28;20017;-51
2021/01/31 08:44:52;;;;;;;1.58;1.40;;;18.90;44.70;;;;;;6272643;28;20160;-51
2021/01/31 08:47:53;;;;;;;1.73;1.30;;;18.80;44.60;;;;;;6205146;28;20438;-48
2021/01/31 08:51:11;;;;;;;1.85;1.45;;;18.90;44.70;;;;;;6239737;28;20021;-50
2021/01/31 08:54:21;;;;;;;1.25;1.08;;;18.80;44.60;;;;;;6269618;28;20029;-48
2021/01/31 08:57:21;;;;;;;1.52;1.08;;;18.80;44.60;;;;;;6269097;28;20552;-48
2021/01/31 09:00:25;;;;;;;1.33;1.20;;;18.80;44.70;;;;;;6265107;28;20018;-52
2021/01/31 09:03:26;;;;;;;1.20;1.00;;;18.90;44.70;;;;;;6244841;28;20470;-48
2021/01/31 09:06:26;;;;;;;1.50;1.27;;;18.80;44.60;;;;;;6265310;28;20087;-50
2021/01/31 09:09:30;;;;;;;1.38;1.20;;;18.90;44.80;;;;;;6265294;28;20033;-48
2021/01/31 09:12:31;;;;;;;1.92;1.20;;;18.80;44.60;;;;;;6260972;28;20025;-48
2021/01/31 09:15:31;;;;;;;1.30;1.10;;;18.90;44.80;;;;;;6245045;28;20021;-49
2021/01/31 09:18:32;;;;;;;1.10;1.00;;;18.80;44.60;;;;;;6269123;28;20017;-51
2021/01/31 09:21:34;;;;;;;1.25;1.08;;;18.80;44.60;;;;;;6260288;28;20305;-48
2021/01/31 09:24:38;;;;;;;1.48;1.30;;;18.80;44.60;;;;;;6244348;28;20484;-48
2021/01/31 09:27:46;;;;;;;1.27;1.02;;;18.80;44.60;;;;;;6260891;28;20025;-48
2021/01/31 09:30:47;;;;;;;1.02;0.85;;;18.80;44.70;;;;;;6236393;28;20033;-48
2021/01/31 09:33:53;;;;;;;1.70;1.23;;;18.90;44.80;;;;;;6250827;28;20037;-51
2021/01/31 09:37:22;;;;;;;1.30;1.00;;;18.90;44.80;;;;;;6268717;28;20071;-50
2021/01/31 09:40:22;;;;;;;1.35;1.13;;;18.90;44.80;;;;;;6268320;28;20458;-50
2021/01/31 09:43:29;;;;;;;1.33;1.15;;;18.90;44.80;;;;;;6268254;28;20047;-49
2021/01/31 09:46:30;;;;;;;1.20;1.02;;;18.90;44.80;;;;;;6250287;28;20033;-49
2021/01/31 09:49:31;;;;;;;1.38;1.00;;;18.90;44.70;;;;;;6268684;28;20261;-48
2021/01/31 09:52:33;;;;;;;1.50;1.20;;;18.90;44.70;;;;;;6268562;28;20043;-50
2021/01/31 09:55:44;;;;;;;1.23;1.05;;;18.90;44.80;;;;;;6268103;28;20075;-49
2021/01/31 09:58:47;;;;;;;1.35;1.05;;;18.90;44.70;;;;;;6247008;28;20080;-48
2021/01/31 10:01:49;;;;;;;1.30;1.05;;;18.90;44.70;;;;;;6248501;28;20055;-48
2021/01/31 10:05:01;;;;;;;1.20;0.90;;;18.90;44.80;;;;;;6268668;28;20052;-51
2021/01/31 10:08:06;;;;;;;1.20;0.90;;;18.90;45.50;;;;;;6267775;28;20028;-49
2021/01/31 10:11:26;;;;;;;13.77;1.20;;;18.90;44.80;;;;;;6224820;28;20569;-48
2021/01/31 10:14:45;;;;;;;9.80;1.45;;;19.00;45.00;;;;;;6245142;28;20349;-54
2021/01/31 10:17:46;;;;;;;7.18;1.13;;;19.10;44.90;;;;;;6231726;28;20029;-52
2021/01/31 10:20:46;;;;;;;3.92;1.30;;;19.20;45.20;;;;;;6246338;28;20020;-52
2021/01/31 10:24:00;;;;;;;5.95;1.15;;;19.20;45.00;;;;;;6257137;28;20068;-49
2021/01/31 10:27:23;;;;;;;6.65;1.33;;;19.20;44.90;;;;;;6240815;28;20033;-52
2021/01/31 10:30:39;;;;;;;2.33;1.20;;;19.30;44.90;;;;;;6250537;28;20051;-49
2021/01/31 10:33:44;;;;;;;1.45;0.93;;;19.30;44.80;;;;;;6258279;28;20049;-54
2021/01/31 10:36:45;;;;;;;1.65;1.00;;;19.40;44.80;;;;;;6249877;28;20187;-50
2021/01/31 10:39:47;;;;;;;4.22;1.20;;;19.40;44.60;;;;;;6251715;28;20438;-53
2021/01/31 10:42:47;;;;;;;6.18;1.20;;;19.40;44.70;;;;;;6228994;28;20043;-50
2021/01/31 10:45:48;;;;;;;3.65;0.90;;;19.40;45.30;;;;;;6243336;28;20030;-51
2021/01/31 10:48:48;;;;;;;3.40;1.10;;;19.40;44.70;;;;;;6249756;28;20025;-49
2021/01/31 10:51:50;;;;;;;7.35;0.95;;;19.40;45.60;;;;;;6240006;28;20041;-51
2021/01/31 10:54:50;;;;;;;7.40;1.13;;;19.50;45.00;;;;;;6245098;28;20370;-53
2021/01/31 10:57:51;;;;;;;11.25;3.30;;;19.50;45.10;;;;;;6244984;28;20079;-56
2021/01/31 11:00:51;;;;;;;9.15;2.58;;;19.10;35.10;;;;;;6267080;28;20474;-51
2021/01/31 11:03:52;;;;;;;4.68;2.10;;;18.90;40.30;;;;;;6266973;28;20099;-51
2021/01/31 11:06:53;;;;;;;2.45;1.55;;;18.90;41.10;;;;;;6267372;28;20033;-54
2021/01/31 11:10:00;;;;;;;4.45;1.60;;;19.00;41.40;;;;;;6266655;28;20079;-53
2021/01/31 11:13:01;;;;;;;2.78;1.67;;;19.00;41.70;;;;;;6266988;28;20071;-50
2021/01/31 11:16:03;;;;;;;3.75;1.65;;;19.00;42.00;;;;;;6266763;28;20035;-52
2021/01/31 11:19:03;;;;;;;3.00;1.58;;;19.00;42.20;;;;;;6266694;28;20108;-49
2021/01/31 11:22:04;;;;;;;4.05;1.67;;;19.00;42.30;;;;;;6249281;28;20048;-52
2021/01/31 11:25:06;;;;;;;4.95;1.50;;;19.00;42.50;;;;;;6259832;28;20036;-53
2021/01/31 11:28:06;;;;;;;4.97;1.38;;;19.00;42.60;;;;;;6266415;28;20029;-54
2021/01/31 11:31:08;;;;;;;2.28;1.33;;;19.00;42.70;;;;;;6248615;28;20033;-51
2021/01/31 11:34:08;;;;;;;3.65;1.30;;;19.00;42.90;;;;;;6251196;28;20048;-53
2021/01/31 11:37:09;;;;;;;2.17;1.00;;;19.00;43.00;;;;;;6271528;28;20080;-54
2021/01/31 11:40:10;;;;;;;6.75;1.38;;;19.00;43.10;;;;;;6271834;28;20326;-49
2021/01/31 11:43:10;;;;;;;1.73;1.10;;;19.00;43.10;;;;;;6260325;28;20040;-50
2021/01/31 11:46:11;;;;;;;2.35;1.27;;;19.00;43.10;;;;;;6270666;28;20111;-51
2021/01/31 11:49:11;;;;;;;2.42;1.30;;;19.00;44.00;;;;;;6271021;28;20036;-50
2021/01/31 11:52:12;;;;;;;2.05;1.02;;;19.00;43.40;;;;;;6271324;28;20044;-54
2021/01/31 11:55:13;;;;;;;2.95;1.15;;;19.00;43.40;;;;;;6256359;28;20152;-49
2021/01/31 11:58:15;;;;;;;1.92;1.17;;;19.00;43.50;;;;;;6252357;28;20116;-52
2021/01/31 12:01:17;;;;;;;2.53;1.10;;;19.00;43.50;;;;;;6270817;28;20482;-54
2021/01/31 12:04:17;;;;;;;1.65;1.25;;;19.00;43.50;;;;;;6271171;28;20104;-51
2021/01/31 12:07:18;;;;;;;1.25;0.90;;;19.00;43.60;;;;;;6271044;28;20429;-53
2021/01/31 12:10:19;;;;;;;1.70;1.17;;;19.00;43.70;;;;;;6270128;28;20044;-56
2021/01/31 12:13:19;;;;;;;3.28;1.17;;;19.00;43.70;;;;;;6270805;28;20043;-55
2021/01/31 12:16:20;;;;;;;2.03;1.10;;;19.00;43.70;;;;;;6270290;28;20041;-56
2021/01/31 12:19:23;;;;;;;0.90;0.80;;;19.00;43.70;;;;;;6270515;28;20035;-53
2021/01/31 12:22:24;;;;;;;1.35;0.95;;;19.00;43.80;;;;;;6270145;28;20079;-52
2021/01/31 12:25:25;;;;;;;2.20;1.10;;;19.00;43.80;;;;;;6270382;28;20025;-53
2021/01/31 12:28:25;;;;;;;1.33;1.08;;;19.00;43.90;;;;;;6252710;28;20021;-50
2021/01/31 12:31:26;;;;;;;1.63;1.10;;;19.00;43.90;;;;;;6267105;28;20117;-55
2021/01/31 12:34:27;;;;;;;1.30;1.00;;;19.00;44.60;;;;;;6269783;28;20049;-54
2021/01/31 12:37:27;;;;;;;0.80;0.80;;;19.00;43.90;;;;;;6270396;28;20032;-54
2021/01/31 12:40:30;;;;;;;8.00;2.35;;;19.00;44.00;;;;;;6269708;28;20025;-49
2021/01/31 12:43:30;;;;;;;20.92;5.30;;;18.90;40.90;;;;;;6265813;28;20030;-51
2021/01/31 12:46:31;;;;;;;19.23;5.60;;;18.50;31.10;;;;;;6245797;28;20083;-48
2021/01/31 12:49:31;;;;;;;13.38;3.35;;;18.30;32.70;;;;;;6245283;28;20086;-53
2021/01/31 12:52:35;;;;;;;7.53;2.80;;;18.50;36.80;;;;;;6245276;28;20032;-51
2021/01/31 12:55:37;;;;;;;16.10;3.00;;;18.60;39.20;;;;;;6252354;28;20516;-51
2021/01/31 12:58:39;;;;;;;13.57;2.85;;;18.70;39.20;;;;;;6268930;28;20048;-48
2021/01/31 13:01:39;;;;;;;10.20;2.15;;;18.80;39.80;;;;;;6244599;28;20506;-50
2021/01/31 13:04:41;;;;;;;7.00;2.03;;;18.80;40.10;;;;;;6227224;28;20022;-52
2021/01/31 13:07:42;;;;;;;4.80;2.08;;;18.80;40.30;;;;;;6244443;28;20549;-52
2021/01/31 13:10:43;;;;;;;3.33;1.90;;;18.90;40.70;;;;;;6267713;28;20104;-53
2021/01/31 13:13:43;;;;;;;6.65;2.30;;;18.90;41.00;;;;;;6269170;28;20086;-49
2021/01/31 13:16:44;;;;;;;5.05;1.75;;;18.90;41.20;;;;;;6269255;28;20032;-52
2021/01/31 13:19:44;;;;;;;3.00;2.03;;;18.90;41.40;;;;;;6269347;28;20312;-49
2021/01/31 13:22:45;;;;;;;1.38;1.27;;;18.90;41.50;;;;;;6269511;28;20021;-53
2021/01/31 13:25:45;;;;;;;3.55;1.80;;;18.90;41.50;;;;;;6250878;28;20382;-52
2021/01/31 13:28:46;;;;;;;2.80;1.52;;;18.90;41.70;;;;;;6269098;28;20074;-50
2021/01/31 13:31:47;;;;;;;2.47;1.23;;;18.90;41.80;;;;;;6257184;28;20064;-54
2021/01/31 13:34:47;;;;;;;3.97;1.55;;;18.90;42.00;;;;;;6268885;28;20037;-51
2021/01/31 13:37:48;;;;;;;2.97;1.45;;;18.90;42.10;;;;;;6250866;28;20037;-50
2021/01/31 13:40:48;;;;;;;4.63;1.60;;;18.90;42.20;;;;;;6266573;28;20027;-52
2021/01/31 13:43:49;;;;;;;6.55;1.83;;;18.90;42.20;;;;;;6244256;28;20018;-51
2021/01/31 13:46:50;;;;;;;4.30;1.25;;;18.90;42.40;;;;;;6236424;28;20033;-49
2021/01/31 13:49:51;;;;;;;1.90;1.40;;;18.90;42.40;;;;;;6268866;28;20033;-49
2021/01/31 13:52:52;;;;;;;1.63;1.48;;;18.90;42.40;;;;;;6250641;28;20048;-49
2021/01/31 13:55:53;;;;;;;2.00;1.45;;;18.90;42.60;;;;;;6226543;28;20509;-54
2021/01/31 13:58:53;;;;;;;2.22;1.60;;;18.90;42.60;;;;;;6261976;28;20052;-51
2021/01/31 14:01:54;;;;;;;2.45;1.20;;;18.90;42.60;;;;;;6243424;28;20479;-52
2021/01/31 14:04:54;;;;;;;2.10;1.55;;;18.90;42.80;;;;;;6243676;28;20417;-52
2021/01/31 14:07:55;;;;;;;1.88;1.50;;;18.90;42.80;;;;;;6243373;28;20321;-51
2021/01/31 14:10:56;;;;;;;1.85;1.30;;;18.90;42.70;;;;;;6243908;28;20028;-52
2021/01/31 14:13:56;;;;;;;2.78;1.30;;;18.90;42.90;;;;;;6243273;28;20053;-53
2021/01/31 14:16:57;;;;;;;2.63;1.40;;;18.90;42.90;;;;;;6232425;28;20029;-49
2021/01/31 14:19:57;;;;;;;2.10;1.42;;;18.90;43.10;;;;;;6258502;28;20030;-51
2021/01/31 14:22:58;;;;;;;2.05;1.40;;;18.90;43.70;;;;;;6257696;28;20104;-51
2021/01/31 14:25:58;;;;;;;1.80;1.30;;;18.90;43.00;;;;;;6268013;28;20044;-49
2021/01/31 14:29:00;;;;;;;1.20;1.10;;;18.90;43.10;;;;;;6247045;28;20075;-51
2021/01/31 14:32:00;;;;;;;3.17;1.25;;;18.90;43.10;;;;;;6246132;28;20017;-49
2021/01/31 14:35:01;;;;;;;1.92;1.20;;;18.90;43.10;;;;;;6268127;28;20567;-52
2021/01/31 14:38:02;;;;;;;2.10;1.30;;;18.90;43.20;;;;;;6256701;28;20549;-49
2021/01/31 14:41:03;;;;;;;1.63;1.20;;;18.90;43.20;;;;;;6242775;28;20476;-53
2021/01/31 14:44:04;;;;;;;3.83;1.60;;;18.90;44.00;;;;;;6261533;28;20027;-49
2021/01/31 14:47:04;;;;;;;1.65;1.20;;;18.90;43.20;;;;;;6267663;28;20310;-51
2021/01/31 14:50:06;;;;;;;1.70;1.05;;;18.90;43.20;;;;;;6267117;28;20035;-53
2021/01/31 14:53:07;;;;;;;1.30;1.00;;;18.90;43.20;;;;;;6267185;28;20067;-52
2021/01/31 14:56:07;;;;;;;1.60;1.20;;;18.90;43.40;;;;;;6267436;28;20484;-52
2021/01/31 14:59:08;;;;;;;1.52;1.15;;;18.90;43.30;;;;;;6267305;28;20502;-53
2021/01/31 15:02:08;;;;;;;2.33;1.42;;;18.90;43.40;;;;;;6267353;28;20021;-54
2021/01/31 15:05:10;;;;;;;1.75;1.17;;;18.90;43.40;;;;;;6267742;28;20118;-49
2021/01/31 15:08:11;;;;;;;1.58;0.95;;;18.90;43.40;;;;;;6267042;28;20104;-54
2021/01/31 15:11:12;;;;;;;1.95;1.20;;;18.90;43.30;;;;;;6271636;28;20059;-49
2021/01/31 15:14:13;;;;;;;1.63;1.25;;;18.90;43.50;;;;;;6272360;28;20029;-52
2021/01/31 15:17:14;;;;;;;1.30;1.05;;;18.90;43.50;;;;;;6261274;28;20037;-50
2021/01/31 15:20:18;;;;;;;1.80;1.25;;;18.90;43.40;;;;;;6247003;28;20021;-51
2021/01/31 15:23:19;;;;;;;1.90;1.40;;;18.90;43.50;;;;;;6247260;28;20036;-50
2021/01/31 15:26:20;;;;;;;1.42;1.23;;;18.90;43.60;;;;;;6248206;28;20260;-54
2021/01/31 15:29:20;;;;;;;1.10;1.00;;;18.90;43.50;;;;;;6240295;28;20382;-49
2021/01/31 15:32:21;;;;;;;2.10;1.10;;;18.90;43.60;;;;;;6247211;28;20262;-50
2021/01/31 15:35:22;;;;;;;1.48;1.23;;;18.90;43.50;;;;;;6268815;28;20107;-53
2021/01/31 15:38:22;;;;;;;1.55;1.20;;;18.90;43.50;;;;;;6271664;28;20029;-53
2021/01/31 15:41:23;;;;;;;1.13;0.95;;;18.90;43.50;;;;;;6272031;28;20025;-53
2021/01/31 15:44:27;;;;;;;1.83;1.25;;;18.90;43.60;;;;;;6271062;28;20477;-51
2021/01/31 15:47:28;;;;;;;1.57;1.10;;;18.90;43.60;;;;;;6271953;28;20082;-51
2021/01/31 15:50:29;;;;;;;1.30;1.05;;;18.90;43.60;;;;;;6250237;28;20025;-52
2021/01/31 15:53:30;;;;;;;2.10;1.23;;;18.90;43.60;;;;;;6246284;28;20406;-49
2021/01/31 15:56:30;;;;;;;1.83;1.23;;;18.90;43.60;;;;;;6246904;28;20034;-54
2021/01/31 15:59:31;;;;;;;1.20;1.10;;;18.90;43.70;;;;;;6258619;28;20206;-52
2021/01/31 16:02:32;;;;;;;1.67;1.15;;;18.90;43.60;;;;;;6271397;28;20104;-51
2021/01/31 16:05:35;;;;;;;1.10;1.00;;;18.90;43.70;;;;;;6251820;28;20026;-49
2021/01/31 16:08:36;;;;;;;1.75;1.20;;;18.90;43.70;;;;;;6248790;28;20021;-50